Tenko Maru — HPRN — position and weather

sailwx.info

Track history (hours):
 
Tides and Currents Weather Stations Pressure Air Temp Water Temp Dewpoint Dewpoint Depression Visibility Wind Speed Wind Dir Waves Ship Positions

Tenko Maru

Last reported at 2015-Mar-04 16:27 UTC. Time now 2015-Mar-28 01:48 UTC.
Position N 31°00' E 122°26'.
Warning: this ship's position is 23 days out of date.

Length 190 m; draft 6.3 m.

Type: Cargo ship. MMSI: 370715000.

Date/timePositionNaut miles runAvg speedWind from/ knotsBaromVisibWave heightAir tempDewpointWater temp
2015-Mar-04 16:27N 31°00' E 122°26'1112.2
2015-Mar-04 15:34N 31°03' E 122°13'1010.0
2015-Mar-04 14:34N 31°05' E 122°02'1110.5
2015-Mar-04 13:34N 31°10' E 121°51'1212.4
2015-Mar-04 12:34N 31°19' E 121°42'1110.7
2015-Mar-04 11:34N 31°25' E 121°31'10 9.7
2015-Mar-04 10:34N 31°31' E 121°23'1413.9
2015-Mar-04 09:33N 31°41' E 121°11'1413.4
2015-Mar-04 08:33N 31°48' E 120°57'1 0.6
2015-Mar-04 07:32N 31°49' E 120°57'0 0.1
2015-Mar-04 06:32N 31°49' E 120°57'0 0.0
2015-Mar-04 05:22N 31°49' E 120°57'0 0.0
2015-Mar-03 17:16N 31°49' E 120°57'0 0.0
2015-Mar-03 15:31N 31°49' E 120°57'0 0.0
2015-Mar-03 12:19N 31°49' E 120°57'0 0.0
2015-Mar-03 00:07N 31°49' E 120°57'0 0.0
2015-Mar-02 23:31N 31°49' E 120°57'0 0.0
2015-Mar-02 22:22N 31°49' E 120°57'0 0.0
2015-Mar-02 21:31N 31°49' E 120°57'0 0.0
2015-Mar-02 19:31N 31°49' E 120°57'0 0.0
2015-Mar-02 18:10N 31°49' E 120°57'0 0.1
2015-Mar-02 17:25N 31°49' E 120°57'0 0.1
2015-Mar-02 16:25N 31°49' E 120°57'0 0.0
2015-Mar-02 15:07N 31°49' E 120°57'0 0.0
2015-Mar-02 02:19N 31°49' E 120°57'0 0.0
2015-Mar-02 01:13N 31°49' E 120°57'0 0.0
2015-Mar-02 00:31N 31°49' E 120°57'0 0.0
2015-Mar-01 23:32N 31°49' E 120°57'0 0.0
2015-Mar-01 22:32N 31°49' E 120°57'0 0.0
2015-Mar-01 21:32N 31°49' E 120°57'0 0.0
2015-Mar-01 20:26N 31°49' E 120°57'0 0.0
2015-Mar-01 19:26N 31°49' E 120°57'0 0.0
2015-Mar-01 18:31N 31°49' E 120°57'0 0.0
2015-Mar-01 17:32N 31°49' E 120°57'0 0.0
2015-Mar-01 16:31N 31°49' E 120°57'0 0.0
2015-Mar-01 15:31N 31°49' E 120°57'0 0.0
2015-Mar-01 13:32N 31°49' E 120°57'0 0.1
2015-Mar-01 12:31N 31°49' E 120°57'0 0.0
2015-Mar-01 11:26N 31°49' E 120°57'0 0.0
2015-Mar-01 10:08N 31°49' E 120°57'0 0.0
2015-Mar-01 08:20N 31°49' E 120°57'0 0.0
2015-Mar-01 07:26N 31°49' E 120°57'0 0.0
2015-Mar-01 06:32N 31°49' E 120°57'0 0.0
2015-Mar-01 05:31N 31°49' E 120°57'0 0.0
2015-Mar-01 04:20N 31°49' E 120°57'0 0.0
2015-Mar-01 03:32N 31°49' E 120°57'0 0.0
2015-Mar-01 02:25N 31°49' E 120°57'0 0.1
2015-Mar-01 01:32N 31°49' E 120°57'0 0.1
2015-Mar-01 00:31N 31°49' E 120°57'0 0.0
2015-Feb-28 23:32N 31°49' E 120°57'0 0.1
2015-Feb-28 22:31N 31°49' E 120°57'0 0.0
2015-Feb-28 21:31N 31°49' E 120°57'0 0.1
2015-Feb-28 20:31N 31°49' E 120°57'0 0.0
2015-Feb-28 19:31N 31°49' E 120°57'0 0.0
2015-Feb-28 18:32N 31°49' E 120°57'0 0.0
2015-Feb-28 17:32N 31°49' E 120°57'0 0.0
2015-Feb-28 16:32N 31°49' E 120°57'0 0.0
2015-Feb-28 15:31N 31°49' E 120°57'0 0.0
2015-Feb-28 14:26N 31°49' E 120°57'0 0.0
2015-Feb-28 13:20N 31°49' E 120°57'0 0.0
2015-Feb-28 12:32N 31°49' E 120°57'0 0.0
2015-Feb-28 11:32N 31°49' E 120°57'0 0.0
2015-Feb-28 08:25N 31°49' E 120°57'0 0.0
2015-Feb-28 05:32N 31°49' E 120°57'2 1.6
2015-Feb-28 04:33N 31°47' E 120°56'5 4.7
2015-Feb-28 03:32N 31°52' E 120°54'0 0.1
2015-Feb-28 02:29N 31°52' E 120°54'0 0.0
2015-Feb-28 01:32N 31°52' E 120°54'0 0.1
2015-Feb-28 00:32N 31°52' E 120°54'0 0.1
2015-Feb-27 23:32N 31°52' E 120°54'0 0.1
2015-Feb-27 22:32N 31°52' E 120°54'0 0.0
2015-Feb-27 21:32N 31°52' E 120°54'0 0.0
2015-Feb-27 20:29N 31°52' E 120°54'0 0.0
2015-Feb-27 19:26N 31°52' E 120°54'0 0.0
2015-Feb-27 18:14N 31°52' E 120°54'0 0.1
2015-Feb-27 17:32N 31°52' E 120°54'0 0.0
2015-Feb-27 16:32N 31°52' E 120°54'0 0.0
2015-Feb-27 15:32N 31°52' E 120°54'0 0.1
2015-Feb-27 14:26N 31°52' E 120°54'0 0.1
2015-Feb-27 13:32N 31°52' E 120°54'0 0.0
2015-Feb-27 12:20N 31°52' E 120°54'0 0.1
2015-Feb-27 11:20N 31°52' E 120°54'0 0.1
2015-Feb-27 10:26N 31°52' E 120°54'0 0.1
2015-Feb-27 09:32N 31°52' E 120°54'0 0.1
2015-Feb-27 08:32N 31°52' E 120°54'0 0.1
2015-Feb-27 07:32N 31°52' E 120°54'0 0.1
2015-Feb-27 06:32N 31°52' E 120°54'1 0.5
2015-Feb-27 05:33N 31°51' E 120°54'10 9.6
2015-Feb-27 04:33N 31°46' E 121°03'1212.3
2015-Feb-27 03:33N 31°38' E 121°15'1212.3
2015-Feb-27 02:33N 31°30' E 121°25'8 8.0
2015-Feb-27 01:33N 31°25' E 121°32'7 6.5
2015-Feb-27 00:33N 31°21' E 121°39'10 9.6
2015-Feb-26 23:33N 31°17' E 121°49'1312.6
2015-Feb-26 22:33N 31°14' E 122°03'1212.1
2015-Feb-26 21:33N 31°08' E 122°15'9 9.5
2015-Feb-26 20:33N 31°07' E 122°26'4 4.4
2015-Feb-26 19:33N 31°09' E 122°31'5 4.6
2015-Feb-26 18:33N 31°14' E 122°31'256 8.4
2015-Feb-25 12:05N 34°56' E 120°02'6 9.9
2015-Feb-25 11:28N 34°55' E 119°54'1010.5
2015-Feb-25 10:33N 34°51' E 119°44'9 8.6
2015-Feb-25 09:32N 34°46' E 119°35'6 6.1
2015-Feb-25 08:33N 34°45' E 119°28'0 0.0
2015-Feb-25 07:31N 34°45' E 119°28'0 0.0
2015-Feb-25 06:31N 34°44' E 119°28'0 0.0
2015-Feb-25 05:31N 34°44' E 119°28'0 0.0
2015-Feb-25 04:31N 34°44' E 119°28'0 0.0
2015-Feb-25 03:31N 34°44' E 119°28'0 0.0
2015-Feb-25 02:31N 34°44' E 119°28'0 0.0
2015-Feb-25 01:31N 34°44' E 119°28'0 0.0
2015-Feb-25 00:31N 34°44' E 119°28'0 0.0
2015-Feb-24 23:31N 34°44' E 119°28'0 0.0
2015-Feb-24 22:13N 34°44' E 119°28'0 0.0
2015-Feb-24 21:31N 34°44' E 119°28'0 0.0
2015-Feb-24 20:31N 34°44' E 119°28'0 0.0
2015-Feb-24 19:31N 34°44' E 119°28'0 0.0
2015-Feb-24 18:31N 34°44' E 119°28'0 0.0
2015-Feb-24 17:31N 34°44' E 119°28'0 0.0
2015-Feb-24 16:31N 34°44' E 119°28'0 0.0
2015-Feb-24 15:31N 34°45' E 119°28'0 0.0
2015-Feb-24 14:31N 34°44' E 119°28'0 0.0
2015-Feb-24 13:31N 34°44' E 119°28'0 0.0
2015-Feb-24 12:31N 34°44' E 119°28'0 0.0
2015-Feb-24 11:31N 34°45' E 119°28'0 0.0
2015-Feb-24 10:31N 34°45' E 119°28'0 0.0
2015-Feb-24 09:31N 34°44' E 119°28'0 0.0
2015-Feb-24 08:31N 34°44' E 119°28'0 0.0
2015-Feb-24 07:31N 34°44' E 119°28'0 0.0
2015-Feb-24 06:31N 34°44' E 119°28'0 0.0
2015-Feb-24 05:31N 34°44' E 119°28'0 0.0
2015-Feb-24 04:31N 34°44' E 119°28'0 0.0
2015-Feb-24 03:31N 34°45' E 119°28'0 0.0
2015-Feb-24 02:31N 34°44' E 119°28'0 0.0
2015-Feb-24 01:31N 34°44' E 119°28'0 0.0
2015-Feb-24 00:31N 34°45' E 119°28'0 0.0
2015-Feb-23 23:31N 34°44' E 119°28'0 0.0
2015-Feb-23 22:31N 34°44' E 119°28'0 0.0
2015-Feb-23 21:31N 34°44' E 119°28'0 0.0
2015-Feb-23 20:33N 34°44' E 119°28'0 0.1
2015-Feb-23 19:33N 34°45' E 119°28'7 6.4
2015-Feb-23 18:31N 34°46' E 119°36'7 7.5
2015-Feb-23 17:33N 34°50' E 119°43'  
Track history (hours):
 
Tides and Currents Weather Stations Pressure Air Temp Water Temp Dewpoint Dewpoint Depression Visibility Wind Speed Wind Dir Waves Ship Positions

Tenko Maru

Last reported at 2015-Mar-04 16:27 UTC. Time now 2015-Mar-28 01:48 UTC.
Position N 31°00' E 122°26'.
Warning: this ship's position is 23 days out of date.

Length 190 m; draft 6.3 m.

Type: Cargo ship. MMSI: 370715000.

Date/timePositionNaut miles runAvg speedWind from/ knotsBaromVisibWave heightAir tempDewpointWater temp
2015-Mar-04 16:27N 31°00' E 122°26'1112.2
2015-Mar-04 15:34N 31°03' E 122°13'1010.0
2015-Mar-04 14:34N 31°05' E 122°02'1110.5
2015-Mar-04 13:34N 31°10' E 121°51'1212.4
2015-Mar-04 12:34N 31°19' E 121°42'1110.7
2015-Mar-04 11:34N 31°25' E 121°31'10 9.7
2015-Mar-04 10:34N 31°31' E 121°23'1413.9
2015-Mar-04 09:33N 31°41' E 121°11'1413.4
2015-Mar-04 08:33N 31°48' E 120°57'1 0.6
2015-Mar-04 07:32N 31°49' E 120°57'0 0.1
2015-Mar-04 06:32N 31°49' E 120°57'0 0.0
2015-Mar-04 05:22N 31°49' E 120°57'0 0.0
2015-Mar-03 17:16N 31°49' E 120°57'0 0.0
2015-Mar-03 15:31N 31°49' E 120°57'0 0.0
2015-Mar-03 12:19N 31°49' E 120°57'0 0.0
2015-Mar-03 00:07N 31°49' E 120°57'0 0.0
2015-Mar-02 23:31N 31°49' E 120°57'0 0.0
2015-Mar-02 22:22N 31°49' E 120°57'0 0.0
2015-Mar-02 21:31N 31°49' E 120°57'0 0.0
2015-Mar-02 19:31N 31°49' E 120°57'0 0.0
2015-Mar-02 18:10N 31°49' E 120°57'0 0.1
2015-Mar-02 17:25N 31°49' E 120°57'0 0.1
2015-Mar-02 16:25N 31°49' E 120°57'0 0.0
2015-Mar-02 15:07N 31°49' E 120°57'0 0.0
2015-Mar-02 02:19N 31°49' E 120°57'0 0.0
2015-Mar-02 01:13N 31°49' E 120°57'0 0.0
2015-Mar-02 00:31N 31°49' E 120°57'0 0.0
2015-Mar-01 23:32N 31°49' E 120°57'0 0.0
2015-Mar-01 22:32N 31°49' E 120°57'0 0.0
2015-Mar-01 21:32N 31°49' E 120°57'0 0.0
2015-Mar-01 20:26N 31°49' E 120°57'0 0.0
2015-Mar-01 19:26N 31°49' E 120°57'0 0.0
2015-Mar-01 18:31N 31°49' E 120°57'0 0.0
2015-Mar-01 17:32N 31°49' E 120°57'0 0.0
2015-Mar-01 16:31N 31°49' E 120°57'0 0.0
2015-Mar-01 15:31N 31°49' E 120°57'0 0.0
2015-Mar-01 13:32N 31°49' E 120°57'0 0.1
2015-Mar-01 12:31N 31°49' E 120°57'0 0.0
2015-Mar-01 11:26N 31°49' E 120°57'0 0.0
2015-Mar-01 10:08N 31°49' E 120°57'0 0.0
2015-Mar-01 08:20N 31°49' E 120°57'0 0.0
2015-Mar-01 07:26N 31°49' E 120°57'0 0.0
2015-Mar-01 06:32N 31°49' E 120°57'0 0.0
2015-Mar-01 05:31N 31°49' E 120°57'0 0.0
2015-Mar-01 04:20N 31°49' E 120°57'0 0.0
2015-Mar-01 03:32N 31°49' E 120°57'0 0.0
2015-Mar-01 02:25N 31°49' E 120°57'0 0.1
2015-Mar-01 01:32N 31°49' E 120°57'0 0.1
2015-Mar-01 00:31N 31°49' E 120°57'0 0.0
2015-Feb-28 23:32N 31°49' E 120°57'0 0.1
2015-Feb-28 22:31N 31°49' E 120°57'0 0.0
2015-Feb-28 21:31N 31°49' E 120°57'0 0.1
2015-Feb-28 20:31N 31°49' E 120°57'0 0.0
2015-Feb-28 19:31N 31°49' E 120°57'0 0.0
2015-Feb-28 18:32N 31°49' E 120°57'0 0.0
2015-Feb-28 17:32N 31°49' E 120°57'0 0.0
2015-Feb-28 16:32N 31°49' E 120°57'0 0.0
2015-Feb-28 15:31N 31°49' E 120°57'0 0.0
2015-Feb-28 14:26N 31°49' E 120°57'0 0.0
2015-Feb-28 13:20N 31°49' E 120°57'0 0.0
2015-Feb-28 12:32N 31°49' E 120°57'0 0.0
2015-Feb-28 11:32N 31°49' E 120°57'0 0.0
2015-Feb-28 08:25N 31°49' E 120°57'0 0.0
2015-Feb-28 05:32N 31°49' E 120°57'2 1.6
2015-Feb-28 04:33N 31°47' E 120°56'5 4.7
2015-Feb-28 03:32N 31°52' E 120°54'0 0.1
2015-Feb-28 02:29N 31°52' E 120°54'0 0.0
2015-Feb-28 01:32N 31°52' E 120°54'0 0.1
2015-Feb-28 00:32N 31°52' E 120°54'0 0.1
2015-Feb-27 23:32N 31°52' E 120°54'0 0.1
2015-Feb-27 22:32N 31°52' E 120°54'0 0.0
2015-Feb-27 21:32N 31°52' E 120°54'0 0.0
2015-Feb-27 20:29N 31°52' E 120°54'0 0.0
2015-Feb-27 19:26N 31°52' E 120°54'0 0.0
2015-Feb-27 18:14N 31°52' E 120°54'0 0.1
2015-Feb-27 17:32N 31°52' E 120°54'0 0.0
2015-Feb-27 16:32N 31°52' E 120°54'0 0.0
2015-Feb-27 15:32N 31°52' E 120°54'0 0.1
2015-Feb-27 14:26N 31°52' E 120°54'0 0.1
2015-Feb-27 13:32N 31°52' E 120°54'0 0.0
2015-Feb-27 12:20N 31°52' E 120°54'0 0.1
2015-Feb-27 11:20N 31°52' E 120°54'0 0.1
2015-Feb-27 10:26N 31°52' E 120°54'0 0.1
2015-Feb-27 09:32N 31°52' E 120°54'0 0.1
2015-Feb-27 08:32N 31°52' E 120°54'0 0.1
2015-Feb-27 07:32N 31°52' E 120°54'0 0.1
2015-Feb-27 06:32N 31°52' E 120°54'1 0.5
2015-Feb-27 05:33N 31°51' E 120°54'10 9.6
2015-Feb-27 04:33N 31°46' E 121°03'1212.3
2015-Feb-27 03:33N 31°38' E 121°15'1212.3
2015-Feb-27 02:33N 31°30' E 121°25'8 8.0
2015-Feb-27 01:33N 31°25' E 121°32'7 6.5
2015-Feb-27 00:33N 31°21' E 121°39'10 9.6
2015-Feb-26 23:33N 31°17' E 121°49'1312.6
2015-Feb-26 22:33N 31°14' E 122°03'1212.1
2015-Feb-26 21:33N 31°08' E 122°15'9 9.5
2015-Feb-26 20:33N 31°07' E 122°26'4 4.4
2015-Feb-26 19:33N 31°09' E 122°31'5 4.6
2015-Feb-26 18:33N 31°14' E 122°31'256 8.4
2015-Feb-25 12:05N 34°56' E 120°02'6 9.9
2015-Feb-25 11:28N 34°55' E 119°54'1010.5
2015-Feb-25 10:33N 34°51' E 119°44'9 8.6
2015-Feb-25 09:32N 34°46' E 119°35'6 6.1
2015-Feb-25 08:33N 34°45' E 119°28'0 0.0
2015-Feb-25 07:31N 34°45' E 119°28'0 0.0
2015-Feb-25 06:31N 34°44' E 119°28'0 0.0
2015-Feb-25 05:31N 34°44' E 119°28'0 0.0
2015-Feb-25 04:31N 34°44' E 119°28'0 0.0
2015-Feb-25 03:31N 34°44' E 119°28'0 0.0
2015-Feb-25 02:31N 34°44' E 119°28'0 0.0
2015-Feb-25 01:31N 34°44' E 119°28'0 0.0
2015-Feb-25 00:31N 34°44' E 119°28'0 0.0
2015-Feb-24 23:31N 34°44' E 119°28'0 0.0
2015-Feb-24 22:13N 34°44' E 119°28'0 0.0
2015-Feb-24 21:31N 34°44' E 119°28'0 0.0
2015-Feb-24 20:31N 34°44' E 119°28'0 0.0
2015-Feb-24 19:31N 34°44' E 119°28'0 0.0
2015-Feb-24 18:31N 34°44' E 119°28'0 0.0
2015-Feb-24 17:31N 34°44' E 119°28'0 0.0
2015-Feb-24 16:31N 34°44' E 119°28'0 0.0
2015-Feb-24 15:31N 34°45' E 119°28'0 0.0
2015-Feb-24 14:31N 34°44' E 119°28'0 0.0
2015-Feb-24 13:31N 34°44' E 119°28'0 0.0
2015-Feb-24 12:31N 34°44' E 119°28'0 0.0
2015-Feb-24 11:31N 34°45' E 119°28'0 0.0
2015-Feb-24 10:31N 34°45' E 119°28'0 0.0
2015-Feb-24 09:31N 34°44' E 119°28'0 0.0
2015-Feb-24 08:31N 34°44' E 119°28'0 0.0
2015-Feb-24 07:31N 34°44' E 119°28'0 0.0
2015-Feb-24 06:31N 34°44' E 119°28'0 0.0
2015-Feb-24 05:31N 34°44' E 119°28'0 0.0
2015-Feb-24 04:31N 34°44' E 119°28'0 0.0
2015-Feb-24 03:31N 34°45' E 119°28'0 0.0
2015-Feb-24 02:31N 34°44' E 119°28'0 0.0
2015-Feb-24 01:31N 34°44' E 119°28'0 0.0
2015-Feb-24 00:31N 34°45' E 119°28'0 0.0
2015-Feb-23 23:31N 34°44' E 119°28'0 0.0
2015-Feb-23 22:31N 34°44' E 119°28'0 0.0
2015-Feb-23 21:31N 34°44' E 119°28'0 0.0
2015-Feb-23 20:33N 34°44' E 119°28'0 0.1
2015-Feb-23 19:33N 34°45' E 119°28'7 6.4
2015-Feb-23 18:31N 34°46' E 119°36'7 7.5
2015-Feb-23 17:33N 34°50' E 119°43'  

Dump ship's entire track history